createdAt,value
2022-09-23T00:00:48.367Z,99.20
2022-09-23T00:03:16.099Z,99.26
2022-09-23T00:05:43.156Z,99.26
2022-09-23T00:08:11.678Z,100.00
2022-09-23T00:10:39.853Z,98.89
2022-09-23T00:13:06.496Z,100.00
2022-09-23T00:15:38.769Z,100.00
2022-09-23T00:18:05.403Z,100.00
2022-09-23T00:20:33.712Z,100.00
2022-09-23T00:23:00.510Z,100.00
2022-09-23T00:25:29.696Z,100.00
2022-09-23T00:27:56.734Z,100.00
2022-09-23T00:30:23.635Z,100.00
2022-09-23T00:32:50.084Z,100.00
2022-09-23T00:35:16.640Z,100.00
2022-09-23T00:37:42.999Z,100.00
2022-09-23T00:40:10.648Z,100.00
2022-09-23T00:42:37.056Z,100.00
2022-09-23T00:45:04.292Z,100.00
2022-09-23T00:47:50.386Z,100.00
2022-09-23T00:50:35.132Z,100.00
2022-09-23T00:53:05.503Z,100.00
2022-09-23T00:55:42.069Z,100.00
2022-09-23T00:58:12.499Z,100.00
2022-09-23T01:00:39.074Z,100.00
2022-09-23T01:03:06.878Z,100.00
2022-09-23T01:05:34.071Z,100.00
2022-09-23T01:08:02.553Z,100.00
2022-09-23T01:10:42.997Z,100.00
2022-09-23T01:13:46.915Z,100.00
2022-09-23T01:16:21.481Z,100.00
2022-09-23T01:19:05.300Z,100.00
2022-09-23T01:22:14.371Z,100.00
2022-09-23T01:24:55.182Z,100.00
2022-09-23T01:27:30.744Z,100.00
2022-09-23T01:30:09.700Z,100.00
2022-09-23T01:32:58.290Z,100.00
2022-09-23T01:35:47.967Z,100.00
2022-09-23T01:38:34.657Z,100.00
2022-09-23T01:41:04.525Z,100.00
2022-09-23T01:43:43.703Z,100.00
2022-09-23T01:46:17.707Z,100.00
2022-09-23T01:48:54.080Z,100.00
2022-09-23T01:51:26.636Z,100.00
2022-09-23T01:54:18.181Z,100.00
2022-09-23T01:56:56.229Z,100.00
2022-09-23T01:59:40.679Z,100.00
2022-09-23T02:02:23.672Z,100.00
2022-09-23T02:05:06.852Z,100.00
2022-09-23T02:07:33.162Z,100.00
2022-09-23T02:10:07.309Z,100.00
2022-09-23T02:12:38.282Z,100.00
2022-09-23T02:15:10.071Z,100.00
2022-09-23T02:17:48.312Z,100.00
2022-09-23T02:20:20.973Z,100.00
2022-09-23T02:22:56.415Z,100.00
2022-09-23T02:25:35.184Z,100.00
2022-09-23T02:28:31.147Z,100.00
2022-09-23T02:31:13.023Z,100.00
2022-09-23T02:33:51.120Z,100.00
2022-09-23T02:36:29.965Z,100.00
2022-09-23T02:39:00.790Z,100.00
2022-09-23T02:41:39.251Z,100.00
2022-09-23T02:44:16.387Z,100.00
2022-09-23T02:46:43.667Z,100.00
2022-09-23T02:49:15.017Z,100.00
2022-09-23T02:51:41.746Z,100.00
2022-09-23T02:54:14.826Z,100.00
2022-09-23T02:56:41.724Z,100.00
2022-09-23T02:59:09.521Z,100.00
2022-09-23T03:02:13.672Z,100.00
2022-09-23T03:05:19.363Z,100.00
2022-09-23T03:07:52.957Z,100.00
2022-09-23T03:10:22.857Z,100.00
2022-09-23T03:12:58.193Z,100.00
2022-09-23T03:15:37.919Z,100.00
2022-09-23T03:18:14.438Z,100.00
2022-09-23T03:20:46.240Z,100.00
2022-09-23T03:23:15.192Z,100.00
2022-09-23T03:25:45.768Z,100.00
2022-09-23T03:28:14.696Z,100.00
2022-09-23T03:30:43.481Z,100.00
2022-09-23T03:33:12.666Z,100.00
2022-09-23T03:36:07.563Z,100.00
2022-09-23T03:38:37.903Z,100.00
2022-09-23T03:41:06.123Z,100.00
2022-09-23T03:43:37.999Z,100.00
2022-09-23T03:46:07.167Z,100.00
2022-09-23T03:48:33.792Z,100.00
2022-09-23T03:51:17.786Z,100.00
2022-09-23T03:53:44.146Z,100.00
2022-09-23T03:56:11.672Z,100.00
2022-09-23T03:58:38.247Z,100.00
2022-09-23T04:01:06.196Z,100.00
2022-09-23T04:03:32.750Z,100.00
2022-09-23T04:05:59.186Z,100.00
2022-09-23T04:08:25.521Z,100.00
2022-09-23T04:10:54.880Z,100.00
2022-09-23T04:13:21.426Z,100.00
2022-09-23T04:15:50.247Z,100.00
2022-09-23T04:18:16.584Z,100.00
2022-09-23T04:20:43.017Z,100.00
2022-09-23T04:23:09.407Z,100.00
2022-09-23T04:25:35.915Z,100.00
2022-09-23T04:28:02.694Z,100.00
2022-09-23T04:30:29.096Z,100.00
2022-09-23T04:32:55.521Z,100.00
2022-09-23T04:35:21.895Z,100.00
2022-09-23T04:37:48.756Z,100.00
2022-09-23T04:40:15.400Z,100.00
2022-09-23T04:42:41.888Z,100.00
2022-09-23T04:45:08.605Z,100.00
2022-09-23T04:47:35.035Z,100.00
2022-09-23T04:50:01.506Z,100.00
2022-09-23T04:52:29.900Z,100.00
2022-09-23T04:54:56.351Z,100.00
2022-09-23T04:57:24.601Z,100.00
2022-09-23T04:59:51.037Z,100.00
2022-09-23T05:02:17.418Z,100.00
2022-09-23T05:04:44.563Z,100.00
2022-09-23T05:07:12.098Z,100.00
2022-09-23T05:09:38.716Z,100.00
2022-09-23T05:12:05.446Z,100.00
2022-09-23T05:14:31.795Z,100.00
2022-09-23T05:16:58.188Z,100.00
2022-09-23T05:19:24.588Z,100.00
2022-09-23T05:21:50.956Z,100.00
2022-09-23T05:24:17.539Z,100.00
2022-09-23T05:26:43.874Z,100.00
2022-09-23T05:29:10.445Z,100.00
2022-09-23T05:31:36.951Z,100.00
2022-09-23T05:34:05.119Z,100.00
2022-09-23T05:36:37.954Z,100.00
2022-09-23T05:39:05.942Z,100.00
2022-09-23T05:41:33.883Z,100.00
2022-09-23T05:44:00.793Z,100.00
2022-09-23T05:46:29.379Z,100.00
2022-09-23T05:49:01.784Z,100.00
2022-09-23T05:51:31.194Z,100.00
2022-09-23T05:53:58.872Z,100.00
2022-09-23T05:56:27.864Z,100.00
2022-09-23T05:58:56.364Z,100.00
2022-09-23T06:01:25.846Z,100.00
2022-09-23T06:03:53.683Z,100.00
2022-09-23T06:06:24.183Z,100.00
2022-09-23T06:08:50.825Z,100.00
2022-09-23T06:11:17.395Z,100.00
2022-09-23T06:13:44.006Z,100.00
2022-09-23T06:16:12.872Z,100.00
2022-09-23T06:18:44.302Z,100.00
2022-09-23T06:21:16.544Z,100.00
2022-09-23T06:23:45.138Z,100.00
2022-09-23T06:26:14.752Z,100.00
2022-09-23T06:28:42.975Z,100.00
2022-09-23T06:31:17.214Z,100.00
2022-09-23T06:33:45.570Z,100.00
2022-09-23T06:36:20.782Z,100.00
2022-09-23T06:38:51.038Z,100.00
2022-09-23T06:41:20.675Z,100.00
2022-09-23T06:43:47.741Z,100.00
2022-09-23T06:46:16.126Z,100.00
2022-09-23T06:48:46.450Z,100.00
2022-09-23T06:51:22.900Z,100.00
2022-09-23T06:53:49.490Z,100.00
2022-09-23T06:56:19.947Z,100.00
2022-09-23T06:58:46.923Z,100.00
2022-09-23T07:01:16.203Z,100.00
2022-09-23T07:03:43.765Z,100.00
2022-09-23T07:06:10.555Z,100.00
2022-09-23T07:08:37.378Z,100.00
2022-09-23T07:11:06.311Z,100.00
2022-09-23T07:13:33.504Z,100.00
2022-09-23T07:16:01.971Z,100.00
2022-09-23T07:18:36.157Z,100.00
2022-09-23T07:21:15.253Z,100.00
2022-09-23T07:23:46.533Z,100.00
2022-09-23T07:26:14.402Z,100.00
2022-09-23T07:28:40.913Z,100.00
2022-09-23T07:31:13.375Z,100.00
2022-09-23T07:33:44.042Z,100.00
2022-09-23T07:36:13.572Z,100.00
2022-09-23T07:38:44.435Z,100.00
2022-09-23T07:41:15.111Z,100.00
2022-09-23T07:43:41.581Z,100.00
2022-09-23T07:46:11.580Z,99.82
2022-09-23T07:48:38.905Z,99.64
2022-09-23T07:51:21.280Z,98.56
2022-09-23T07:53:49.220Z,95.60
2022-09-23T07:56:17.440Z,96.09
2022-09-23T07:58:43.921Z,96.35
2022-09-23T08:01:11.937Z,94.78
2022-09-23T08:03:39.245Z,96.05
2022-09-23T08:06:13.258Z,96.56
2022-09-23T08:08:43.285Z,97.29
2022-09-23T08:11:12.319Z,97.93
2022-09-23T08:13:38.944Z,97.89
2022-09-23T08:16:05.649Z,98.52
2022-09-23T08:18:32.956Z,98.71
2022-09-23T08:20:59.339Z,99.48
2022-09-23T08:23:25.928Z,99.20
2022-09-23T08:26:02.945Z,100.00
2022-09-23T08:28:30.088Z,100.00
2022-09-23T08:30:56.515Z,99.94
2022-09-23T08:33:23.890Z,100.00
2022-09-23T08:35:51.099Z,98.95
2022-09-23T08:38:17.581Z,100.00
2022-09-23T08:40:47.382Z,100.00
2022-09-23T08:43:32.574Z,99.73
2022-09-23T08:46:03.771Z,98.40
2022-09-23T08:48:45.705Z,97.20
2022-09-23T08:51:15.880Z,96.92
2022-09-23T08:53:42.888Z,95.15
2022-09-23T08:56:16.260Z,93.99
2022-09-23T08:59:08.293Z,91.09
2022-09-23T09:01:43.913Z,88.21
2022-09-23T09:04:42.926Z,85.72
2022-09-23T09:10:03.554Z,83.14
2022-09-23T09:13:07.428Z,81.47
2022-09-23T09:15:44.045Z,80.95
2022-09-23T09:18:20.831Z,80.00
2022-09-23T09:21:12.538Z,81.24
2022-09-23T09:23:43.757Z,84.26
2022-09-23T09:26:22.694Z,84.54
2022-09-23T09:29:02.523Z,82.63
2022-09-23T09:31:46.352Z,81.48
2022-09-23T09:34:20.289Z,80.32
2022-09-23T09:36:57.497Z,79.65
2022-09-23T09:39:26.311Z,76.03
2022-09-23T09:41:53.661Z,75.04
2022-09-23T09:44:40.706Z,75.97
2022-09-23T09:47:28.565Z,75.76
2022-09-23T09:50:13.934Z,76.05
2022-09-23T09:52:43.024Z,76.96
2022-09-23T09:55:12.307Z,77.24
2022-09-23T09:58:01.696Z,77.94
2022-09-23T10:00:28.175Z,78.43
2022-09-23T10:02:59.390Z,79.44
2022-09-23T10:05:33.088Z,77.04
2022-09-23T10:08:37.791Z,76.03
2022-09-23T10:11:13.348Z,73.60
2022-09-23T10:13:39.766Z,75.10
2022-09-23T10:16:06.592Z,73.21
2022-09-23T10:18:39.086Z,74.94
2022-09-23T10:21:14.382Z,74.58
2022-09-23T10:24:00.854Z,72.88
2022-09-23T10:26:51.197Z,74.78
2022-09-23T10:29:29.703Z,74.76
2022-09-23T10:32:31.643Z,73.35
2022-09-23T10:35:08.899Z,74.88
2022-09-23T10:37:41.455Z,72.78
2022-09-23T10:40:48.810Z,70.33
2022-09-23T10:43:36.932Z,70.35
2022-09-23T10:46:26.272Z,68.54
2022-09-23T10:49:31.123Z,70.39
2022-09-23T10:52:00.230Z,67.17
2022-09-23T10:54:59.296Z,67.11
2022-09-23T10:57:46.409Z,66.54
2022-09-23T11:00:34.596Z,65.60
2022-09-23T11:03:48.763Z,66.69
2022-09-23T11:06:18.132Z,67.24
2022-09-23T11:09:03.126Z,67.06
2022-09-23T11:11:35.363Z,64.97
2022-09-23T11:14:15.828Z,62.79
2022-09-23T11:17:05.979Z,59.90
2022-09-23T11:19:51.396Z,59.30
2022-09-23T11:22:36.384Z,60.01
2022-09-23T11:25:31.210Z,59.09
2022-09-23T11:28:09.628Z,56.85
2022-09-23T11:31:12.504Z,56.02
2022-09-23T11:33:53.012Z,54.70
2022-09-23T11:36:25.386Z,54.53
2022-09-23T11:38:54.751Z,53.21
2022-09-23T11:41:27.076Z,52.62
2022-09-23T11:44:04.230Z,52.82
2022-09-23T11:46:37.766Z,51.48
2022-09-23T11:49:17.194Z,51.02
2022-09-23T11:51:57.435Z,50.09
2022-09-23T11:54:49.758Z,48.60
2022-09-23T11:57:41.037Z,48.60
2022-09-23T12:00:16.223Z,49.12
2022-09-23T12:03:05.679Z,48.32
2022-09-23T12:05:58.623Z,49.35
2022-09-23T12:08:33.535Z,48.57
2022-09-23T12:11:19.578Z,47.15
2022-09-23T12:14:28.193Z,48.59
2022-09-23T12:17:16.655Z,49.24
2022-09-23T12:20:17.113Z,47.83
2022-09-23T12:22:57.531Z,47.79
2022-09-23T12:25:49.860Z,48.03
2022-09-23T12:28:27.154Z,49.32
2022-09-23T12:30:57.548Z,49.39
2022-09-23T12:33:27.621Z,47.07
2022-09-23T12:36:01.787Z,47.96
2022-09-23T12:38:41.044Z,48.10
2022-09-23T12:41:24.000Z,48.86
2022-09-23T12:43:55.280Z,49.67
2022-09-23T12:46:27.378Z,50.11
2022-09-23T12:48:57.306Z,49.95
2022-09-23T12:51:25.676Z,49.70
2022-09-23T12:53:58.681Z,49.81
2022-09-23T12:56:53.753Z,49.80
2022-09-23T12:59:32.431Z,49.54
2022-09-23T13:02:24.479Z,49.43
2022-09-23T13:05:41.514Z,50.10
2022-09-23T13:08:13.569Z,50.67
2022-09-23T13:10:43.287Z,52.06
2022-09-23T13:13:22.278Z,52.00
2022-09-23T13:15:49.017Z,51.50
2022-09-23T13:18:18.414Z,51.29
2022-09-23T13:20:47.033Z,51.19
2022-09-23T13:23:21.693Z,51.02
2022-09-23T13:25:51.464Z,51.64
2022-09-23T13:28:55.820Z,50.58
2022-09-23T13:31:22.315Z,52.19
2022-09-23T13:33:54.343Z,51.79
2022-09-23T13:36:21.160Z,51.71
2022-09-23T13:38:47.568Z,51.31
2022-09-23T13:41:28.547Z,50.76
2022-09-23T13:43:58.612Z,50.55
2022-09-23T13:46:27.870Z,51.63
2022-09-23T13:48:55.455Z,51.57
2022-09-23T13:51:26.957Z,51.39
2022-09-23T13:53:58.810Z,51.64
2022-09-23T13:56:27.914Z,51.76
2022-09-23T13:58:56.644Z,51.37
2022-09-23T14:01:32.116Z,52.05
2022-09-23T14:03:59.353Z,52.50
2022-09-23T14:06:27.360Z,51.64
2022-09-23T14:08:54.105Z,50.27
2022-09-23T14:11:33.036Z,51.07
2022-09-23T14:14:07.601Z,51.57
2022-09-23T14:16:39.522Z,52.30
2022-09-23T14:19:08.030Z,51.79
2022-09-23T14:21:36.993Z,51.82
2022-09-23T14:24:14.029Z,51.84
2022-09-23T14:26:46.503Z,51.60
2022-09-23T14:29:17.429Z,52.08
2022-09-23T14:31:56.847Z,51.92
2022-09-23T14:34:39.616Z,52.24
2022-09-23T14:37:33.755Z,52.92
2022-09-23T14:40:00.756Z,53.23
2022-09-23T14:42:38.358Z,53.24
2022-09-23T14:45:05.675Z,51.96
2022-09-23T14:47:34.376Z,52.46
2022-09-23T14:50:19.692Z,53.27
2022-09-23T14:52:50.171Z,53.58
2022-09-23T14:55:18.281Z,53.28
2022-09-23T14:57:45.751Z,53.76
2022-09-23T15:00:20.282Z,52.53
2022-09-23T15:03:04.540Z,51.19
2022-09-23T15:05:39.680Z,52.10
2022-09-23T15:08:06.509Z,52.34
2022-09-23T15:10:37.493Z,53.41
2022-09-23T15:13:09.102Z,53.29
2022-09-23T15:15:36.058Z,53.64
2022-09-23T15:18:04.837Z,54.68
2022-09-23T15:20:31.853Z,53.93
2022-09-23T15:22:58.325Z,55.00
2022-09-23T15:25:40.085Z,54.59
2022-09-23T15:28:06.575Z,55.34
2022-09-23T15:30:35.561Z,56.01
2022-09-23T15:33:02.241Z,56.20
2022-09-23T15:35:28.912Z,56.03
2022-09-23T15:37:58.806Z,55.30
2022-09-23T15:40:28.749Z,55.20
2022-09-23T15:42:58.559Z,56.37
2022-09-23T15:45:33.326Z,56.83
2022-09-23T15:48:06.843Z,57.25
2022-09-23T15:50:35.053Z,57.67
2022-09-23T15:53:01.545Z,56.96
2022-09-23T15:55:27.916Z,57.63
2022-09-23T15:57:54.361Z,58.60
2022-09-23T16:00:21.291Z,58.11
2022-09-23T16:02:49.229Z,58.35
2022-09-23T16:05:37.861Z,59.91
2022-09-23T16:08:08.920Z,59.42
2022-09-23T16:10:36.798Z,58.87
2022-09-23T16:13:06.234Z,58.53
2022-09-23T16:15:32.970Z,58.61
2022-09-23T16:18:00.198Z,59.11
2022-09-23T16:20:29.759Z,58.45
2022-09-23T16:23:01.949Z,58.14
2022-09-23T16:25:31.424Z,58.92
2022-09-23T16:27:58.446Z,59.60
2022-09-23T16:30:30.417Z,60.32
2022-09-23T16:32:56.935Z,60.55
2022-09-23T16:35:26.896Z,58.81
2022-09-23T16:37:53.634Z,60.32
2022-09-23T16:40:22.516Z,60.17
2022-09-23T16:42:51.092Z,59.51
2022-09-23T16:45:18.999Z,60.75
2022-09-23T16:47:47.614Z,60.17
2022-09-23T16:50:16.421Z,60.52
2022-09-23T16:52:43.705Z,60.92
2022-09-23T16:55:12.322Z,61.52
2022-09-23T16:57:39.628Z,62.45
2022-09-23T17:00:32.345Z,62.90
2022-09-23T17:03:17.427Z,62.63
2022-09-23T17:05:46.571Z,63.35
2022-09-23T17:08:15.047Z,64.09
2022-09-23T17:10:43.039Z,64.15
2022-09-23T17:13:11.010Z,65.92
2022-09-23T17:15:41.367Z,67.72
2022-09-23T17:18:09.110Z,67.50
2022-09-23T17:20:35.675Z,69.18
2022-09-23T17:23:05.354Z,68.61
2022-09-23T17:25:33.888Z,69.04
2022-09-23T17:28:00.818Z,69.84
2022-09-23T17:30:27.593Z,69.39
2022-09-23T17:32:54.171Z,70.47
2022-09-23T17:35:20.544Z,70.13
2022-09-23T17:37:47.595Z,70.63
2022-09-23T17:40:14.236Z,70.10
2022-09-23T17:42:41.324Z,71.36
2022-09-23T17:45:10.294Z,71.32
2022-09-23T17:47:41.314Z,72.99
2022-09-23T17:50:08.242Z,73.06
2022-09-23T17:52:34.615Z,74.02
2022-09-23T17:55:01.051Z,74.18
2022-09-23T17:57:27.424Z,74.71
2022-09-23T17:59:53.953Z,74.82
2022-09-23T18:02:22.462Z,74.55
2022-09-23T18:04:48.957Z,75.66
2022-09-23T18:07:15.321Z,76.57
2022-09-23T18:09:41.725Z,77.79
2022-09-23T18:12:08.111Z,77.50
2022-09-23T18:14:34.501Z,78.10
2022-09-23T18:17:00.859Z,78.55
2022-09-23T18:19:27.224Z,78.63
2022-09-23T18:21:56.279Z,79.29
2022-09-23T18:24:38.718Z,79.26
2022-09-23T18:27:06.400Z,79.89
2022-09-23T18:29:34.343Z,80.48
2022-09-23T18:32:01.299Z,80.80
2022-09-23T18:34:28.550Z,81.65
2022-09-23T18:36:56.092Z,81.58
2022-09-23T18:39:22.548Z,81.81
2022-09-23T18:41:49.517Z,80.70
2022-09-23T18:44:16.788Z,81.46
2022-09-23T18:46:44.728Z,81.95
2022-09-23T18:49:29.524Z,81.28
2022-09-23T18:51:57.767Z,82.30
2022-09-23T18:54:25.964Z,83.04
2022-09-23T18:56:52.713Z,83.74
2022-09-23T18:59:23.647Z,83.87
2022-09-23T19:01:50.726Z,84.00
2022-09-23T19:04:19.892Z,84.46
2022-09-23T19:06:47.185Z,85.10
2022-09-23T19:09:15.069Z,85.38
2022-09-23T19:11:41.570Z,86.62
2022-09-23T19:14:11.397Z,87.00
2022-09-23T19:16:39.460Z,88.03
2022-09-23T19:19:06.543Z,89.65
2022-09-23T19:21:33.517Z,90.92
2022-09-23T19:24:03.367Z,91.45
2022-09-23T19:26:34.439Z,92.34
2022-09-23T19:29:02.676Z,91.84
2022-09-23T19:31:33.319Z,92.71
2022-09-23T19:34:01.192Z,93.02
2022-09-23T19:36:33.207Z,94.17
2022-09-23T19:39:03.180Z,94.91
2022-09-23T19:41:32.171Z,95.25
2022-09-23T19:44:03.266Z,95.73
2022-09-23T19:46:33.617Z,96.63
2022-09-23T19:49:00.591Z,97.35
2022-09-23T19:51:27.628Z,98.33
2022-09-23T19:53:53.987Z,98.00
2022-09-23T19:56:20.452Z,97.39
2022-09-23T19:58:49.495Z,97.19
2022-09-23T20:01:16.566Z,98.34
2022-09-23T20:03:47.094Z,99.69
2022-09-23T20:06:14.814Z,100.00
2022-09-23T20:08:41.351Z,100.00
2022-09-23T20:11:11.518Z,100.00
2022-09-23T20:13:42.534Z,100.00
2022-09-23T20:16:11.487Z,100.00
2022-09-23T20:18:38.488Z,100.00
2022-09-23T20:21:06.224Z,100.00
2022-09-23T20:23:32.856Z,100.00
2022-09-23T20:26:19.443Z,100.00
2022-09-23T20:28:46.196Z,100.00
2022-09-23T20:31:13.553Z,100.00
2022-09-23T20:33:41.535Z,100.00
2022-09-23T20:36:13.160Z,100.00
2022-09-23T20:38:40.448Z,100.00
2022-09-23T20:41:08.268Z,100.00
2022-09-23T20:43:35.381Z,100.00
2022-09-23T20:46:05.385Z,100.00
2022-09-23T20:48:31.809Z,100.00
2022-09-23T20:51:02.619Z,100.00
2022-09-23T20:53:29.431Z,100.00
2022-09-23T20:55:58.117Z,100.00
2022-09-23T20:58:29.419Z,100.00
2022-09-23T21:01:27.212Z,100.00
2022-09-23T21:03:55.761Z,100.00
2022-09-23T21:06:26.078Z,100.00
2022-09-23T21:08:53.641Z,100.00
2022-09-23T21:11:20.431Z,100.00
2022-09-23T21:13:48.092Z,100.00
2022-09-23T21:16:16.101Z,100.00
2022-09-23T21:18:43.660Z,100.00
2022-09-23T21:21:12.088Z,100.00
2022-09-23T21:23:39.281Z,100.00
2022-09-23T21:26:12.014Z,100.00
2022-09-23T21:28:43.354Z,100.00
2022-09-23T21:31:25.610Z,100.00
2022-09-23T21:33:59.019Z,100.00
2022-09-23T21:36:27.408Z,100.00
2022-09-23T21:38:53.892Z,100.00
2022-09-23T21:41:26.048Z,100.00
2022-09-23T21:43:52.537Z,100.00
2022-09-23T21:46:20.862Z,100.00
2022-09-23T21:48:50.372Z,100.00
2022-09-23T21:51:19.194Z,100.00
2022-09-23T21:53:46.006Z,100.00
2022-09-23T21:56:20.711Z,100.00
2022-09-23T21:58:47.945Z,100.00
2022-09-23T22:01:22.368Z,100.00
2022-09-23T22:03:52.348Z,100.00
2022-09-23T22:06:21.735Z,100.00
2022-09-23T22:08:54.280Z,100.00
2022-09-23T22:11:42.049Z,100.00
2022-09-23T22:14:12.409Z,100.00
2022-09-23T22:16:39.789Z,100.00
2022-09-23T22:19:09.817Z,100.00
2022-09-23T22:21:38.650Z,100.00
2022-09-23T22:24:07.361Z,100.00
2022-09-23T22:26:44.504Z,100.00
2022-09-23T22:29:34.695Z,100.00
2022-09-23T22:32:20.985Z,100.00
2022-09-23T22:34:50.567Z,100.00
2022-09-23T22:37:25.632Z,100.00
2022-09-23T22:39:52.860Z,100.00
2022-09-23T22:42:22.276Z,100.00
2022-09-23T22:44:49.052Z,100.00
2022-09-23T22:47:17.531Z,100.00
2022-09-23T22:49:44.004Z,100.00
2022-09-23T22:52:12.347Z,100.00
2022-09-23T22:54:38.701Z,100.00
2022-09-23T22:57:06.838Z,100.00
2022-09-23T22:59:33.758Z,100.00
2022-09-23T23:02:02.322Z,100.00
2022-09-23T23:04:29.963Z,100.00
2022-09-23T23:06:58.174Z,100.00
2022-09-23T23:09:24.564Z,100.00
2022-09-23T23:11:50.949Z,100.00
2022-09-23T23:14:18.392Z,100.00
2022-09-23T23:16:46.112Z,100.00
2022-09-23T23:19:14.487Z,100.00
2022-09-23T23:21:44.818Z,100.00
2022-09-23T23:24:16.888Z,100.00
2022-09-23T23:26:43.633Z,100.00
2022-09-23T23:29:14.041Z,100.00
2022-09-23T23:31:40.913Z,100.00
2022-09-23T23:34:17.534Z,100.00
2022-09-23T23:36:44.447Z,100.00
2022-09-23T23:39:11.510Z,100.00
2022-09-23T23:41:39.456Z,100.00
2022-09-23T23:44:07.047Z,100.00
2022-09-23T23:46:34.067Z,100.00
2022-09-23T23:49:00.560Z,100.00
2022-09-23T23:51:27.657Z,100.00
2022-09-23T23:53:54.895Z,100.00
2022-09-23T23:56:23.404Z,100.00
2022-09-23T23:58:58.213Z,100.00
